Time;durP1;ratioP1;P1;durP2;ratioP2;P2;SDS_P1;SDS_P2;PMS_P1;PMS_P2;Temp;Humidity;BMP_temperature;BMP_pressure;BME280_temperature;BME280_humidity;BME280_pressure;Samples;Min_cycle;Max_cycle;Signal;HPM_P1;HPM_P2
2023/05/29 00:02:03;;;;;;;5.32;1.48;;;;;;;11.66;100.00;101918.91;5035255;28;20934;-50
2023/05/29 00:04:28;;;;;;;7.55;1.48;;;;;;;11.65;100.00;101925.22;5039476;28;20032;-54
2023/05/29 00:06:55;;;;;;;9.50;1.90;;;;;;;11.52;100.00;101917.72;5032854;28;20053;-56
2023/05/29 00:09:20;;;;;;;6.22;1.70;;;;;;;11.52;100.00;101910.56;5033082;28;20432;-52
2023/05/29 00:11:50;;;;;;;7.03;2.45;;;;;;;11.53;100.00;101919.38;5021959;28;20041;-49
2023/05/29 00:14:19;;;;;;;12.32;0.77;;;;;;;11.43;100.00;101919.50;5037337;28;20401;-53
2023/05/29 00:16:44;;;;;;;6.78;3.17;;;;;;;11.43;100.00;101921.31;5039083;28;20029;-49
2023/05/29 00:19:09;;;;;;;7.40;1.98;;;;;;;11.36;100.00;101931.78;5040693;28;20037;-52
2023/05/29 00:21:35;;;;;;;8.75;1.08;;;;;;;11.26;100.00;101933.72;5036675;28;20033;-51
2023/05/29 00:24:00;;;;;;;6.75;1.02;;;;;;;11.21;100.00;101936.03;5032005;28;20029;-53
2023/05/29 00:26:25;;;;;;;5.45;0.60;;;;;;;11.20;100.00;101931.69;5038039;28;20382;-48
2023/05/29 00:28:51;;;;;;;5.13;1.05;;;;;;;11.18;100.00;101939.84;5036857;28;20049;-49
2023/05/29 00:31:16;;;;;;;6.75;1.10;;;;;;;11.13;100.00;101931.53;5035688;28;20566;-51
2023/05/29 00:33:41;;;;;;;7.22;1.48;;;;;;;11.02;100.00;101935.28;5038358;28;20073;-52
2023/05/29 00:36:07;;;;;;;13.57;2.17;;;;;;;11.02;100.00;101937.09;5033134;28;20033;-50
2023/05/29 00:38:33;;;;;;;13.38;1.05;;;;;;;10.97;100.00;101936.72;5039036;28;20045;-53
2023/05/29 00:40:58;;;;;;;7.88;1.98;;;;;;;10.89;100.00;101932.22;5036899;28;20393;-53
2023/05/29 00:43:24;;;;;;;4.78;0.47;;;;;;;10.86;100.00;101932.53;5037545;28;20482;-50
2023/05/29 00:45:50;;;;;;;6.40;1.60;;;;;;;10.70;100.00;101934.09;5037493;28;20104;-56
2023/05/29 00:48:16;;;;;;;9.75;2.58;;;;;;;10.63;100.00;101935.69;5039525;28;20029;-51
2023/05/29 00:50:44;;;;;;;12.20;1.10;;;;;;;10.64;100.00;101932.06;5039647;28;20029;-53
2023/05/29 00:53:10;;;;;;;6.15;0.98;;;;;;;10.66;100.00;101935.41;5036322;28;20084;-53
2023/05/29 00:55:35;;;;;;;6.63;0.57;;;;;;;10.65;100.00;101933.72;5039614;28;20524;-52
2023/05/29 00:58:01;;;;;;;10.43;2.20;;;;;;;10.65;100.00;101941.69;5041285;28;20028;-53
2023/05/29 01:00:26;;;;;;;11.82;1.08;;;;;;;10.61;100.00;101935.06;5036460;28;20034;-50
2023/05/29 01:02:52;;;;;;;7.63;1.23;;;;;;;10.58;100.00;101938.00;5037187;28;20144;-54
2023/05/29 01:05:19;;;;;;;6.28;1.33;;;;;;;10.55;100.00;101937.47;5029947;28;20025;-50
2023/05/29 01:07:44;;;;;;;8.48;1.00;;;;;;;10.48;100.00;101938.09;5039722;28;20039;-51
2023/05/29 01:10:11;;;;;;;24.80;1.63;;;;;;;10.48;100.00;101940.75;5034080;28;20037;-53
2023/05/29 01:12:55;;;;;;;6.72;0.95;;;;;;;10.42;100.00;101940.53;5038666;28;20028;-52
2023/05/29 01:15:21;;;;;;;15.52;1.45;;;;;;;10.35;100.00;101929.72;5031187;28;20335;-50
2023/05/29 01:17:49;;;;;;;6.93;0.85;;;;;;;10.32;100.00;101932.66;5036494;28;20048;-51
2023/05/29 01:20:29;;;;;;;6.90;2.50;;;;;;;10.33;100.00;101930.88;5042217;28;20424;-52
2023/05/29 01:23:15;;;;;;;7.30;0.73;;;;;;;10.36;100.00;101941.16;5040618;28;20478;-53
2023/05/29 01:26:03;;;;;;;11.07;1.08;;;;;;;10.26;100.00;101931.44;5041637;28;20025;-49
2023/05/29 01:28:33;;;;;;;2.35;0.68;;;;;;;10.21;100.00;101938.19;5042400;28;20044;-50
2023/05/29 01:31:00;;;;;;;9.02;1.63;;;;;;;10.16;100.00;101941.28;5042280;28;20029;-50
2023/05/29 01:33:27;;;;;;;6.28;1.70;;;;;;;10.20;100.00;101942.66;5038263;28;20586;-49
2023/05/29 01:35:52;;;;;;;9.13;1.80;;;;;;;10.19;100.00;101940.97;5042982;28;20033;-50
2023/05/29 01:38:17;;;;;;;8.80;1.50;;;;;;;10.14;100.00;101934.47;5038423;28;20504;-52
2023/05/29 01:40:43;;;;;;;5.90;1.92;;;;;;;10.06;100.00;101937.88;5031951;28;20453;-49
2023/05/29 01:43:09;;;;;;;3.28;0.60;;;;;;;10.04;100.00;101940.69;5037123;28;21156;-51
2023/05/29 01:45:36;;;;;;;6.30;1.67;;;;;;;10.03;100.00;101946.13;5043559;28;20025;-53
2023/05/29 01:48:01;;;;;;;5.97;2.03;;;;;;;10.00;100.00;101941.16;5033907;28;20119;-52
2023/05/29 01:50:28;;;;;;;8.95;0.98;;;;;;;9.95;100.00;101938.13;5033668;28;20090;-54
2023/05/29 01:52:54;;;;;;;8.05;0.50;;;;;;;9.93;100.00;101940.91;5037016;28;20028;-51
2023/05/29 01:55:19;;;;;;;8.50;1.92;;;;;;;9.85;100.00;101937.34;5035310;28;20040;-51
2023/05/29 01:57:45;;;;;;;9.48;0.95;;;;;;;9.82;100.00;101935.84;5031938;28;20047;-53
2023/05/29 02:00:11;;;;;;;4.90;0.65;;;;;;;9.79;100.00;101933.50;5039382;28;20124;-51
2023/05/29 02:02:40;;;;;;;4.90;1.92;;;;;;;9.80;100.00;101925.38;5042421;28;20461;-51
2023/05/29 02:05:07;;;;;;;10.27;1.55;;;;;;;9.75;100.00;101926.81;5043267;28;20024;-48
2023/05/29 02:07:33;;;;;;;3.63;0.85;;;;;;;9.76;100.00;101936.47;5035005;28;20848;-52
2023/05/29 02:09:58;;;;;;;8.68;1.05;;;;;;;9.73;100.00;101928.78;5033004;28;20112;-51
2023/05/29 02:12:23;;;;;;;8.68;0.63;;;;;;;9.68;100.00;101931.06;5035871;28;20033;-49
2023/05/29 02:14:49;;;;;;;3.83;1.77;;;;;;;9.66;100.00;101933.03;5037164;28;20033;-53
2023/05/29 02:17:14;;;;;;;5.88;1.38;;;;;;;9.67;100.00;101929.41;5039784;28;20064;-50
2023/05/29 02:19:40;;;;;;;9.00;2.13;;;;;;;9.66;100.00;101925.09;5039850;28;20470;-49
2023/05/29 02:22:05;;;;;;;4.22;0.90;;;;;;;9.62;100.00;101929.84;5033324;28;20172;-54
2023/05/29 02:24:31;;;;;;;3.58;0.95;;;;;;;9.56;100.00;101927.78;5039367;28;20029;-47
2023/05/29 02:26:56;;;;;;;1.23;0.65;;;;;;;9.52;100.00;101921.94;5035625;28;20075;-54
2023/05/29 02:29:21;;;;;;;7.55;2.08;;;;;;;9.51;100.00;101927.41;5043704;28;20025;-50
2023/05/29 02:31:47;;;;;;;4.85;1.25;;;;;;;9.45;100.00;101918.25;5036815;28;20381;-48
2023/05/29 02:34:12;;;;;;;7.38;0.32;;;;;;;9.41;100.00;101916.88;5021786;28;20459;-51
2023/05/29 02:36:38;;;;;;;3.85;0.52;;;;;;;9.43;100.00;101919.38;5032555;28;20033;-49
2023/05/29 02:39:05;;;;;;;12.80;0.98;;;;;;;9.40;100.00;101915.22;5037057;28;20455;-51
2023/05/29 02:41:30;;;;;;;5.28;0.57;;;;;;;9.32;100.00;101918.59;5041559;28;20039;-50
2023/05/29 02:43:55;;;;;;;12.48;2.40;;;;;;;9.31;100.00;101914.25;5032187;28;20136;-48
2023/05/29 02:46:21;;;;;;;14.32;2.10;;;;;;;9.35;100.00;101925.41;5042104;28;20063;-49
2023/05/29 02:48:47;;;;;;;9.85;1.65;;;;;;;9.36;100.00;101916.47;5035688;28;20043;-50
2023/05/29 02:51:12;;;;;;;2.78;0.93;;;;;;;9.37;100.00;101919.00;5038808;28;20091;-48
2023/05/29 02:53:38;;;;;;;6.47;1.90;;;;;;;9.31;100.00;101930.16;5036777;28;20032;-49
2023/05/29 02:56:04;;;;;;;8.35;2.05;;;;;;;9.26;100.00;101923.63;5037867;28;20045;-53
2023/05/29 02:58:29;;;;;;;12.00;2.08;;;;;;;9.24;100.00;101928.22;5038097;28;20036;-50
2023/05/29 03:00:54;;;;;;;6.95;1.00;;;;;;;9.27;100.00;101934.09;5037769;28;20037;-50
2023/05/29 03:03:20;;;;;;;8.65;1.15;;;;;;;9.30;100.00;101922.38;5041554;28;20033;-48
2023/05/29 03:05:46;;;;;;;8.07;0.70;;;;;;;9.28;100.00;101926.97;5040370;28;20021;-48
2023/05/29 03:08:12;;;;;;;6.50;0.75;;;;;;;9.22;100.00;101925.75;5031819;28;20388;-51
2023/05/29 03:10:38;;;;;;;11.02;0.77;;;;;;;9.23;100.00;101924.75;5033499;28;20033;-48
2023/05/29 03:13:03;;;;;;;5.78;0.40;;;;;;;9.19;100.00;101920.75;5034700;28;20540;-54
2023/05/29 03:15:29;;;;;;;2.00;0.60;;;;;;;9.12;100.00;101914.38;5031020;28;20037;-49
2023/05/29 03:17:54;;;;;;;3.92;0.73;;;;;;;8.95;100.00;101914.16;5034231;28;20037;-50
2023/05/29 03:20:20;;;;;;;9.52;1.85;;;;;;;8.90;100.00;101919.03;5034803;28;20048;-51
2023/05/29 03:22:45;;;;;;;5.00;0.55;;;;;;;8.92;100.00;101918.91;5031686;28;20079;-47
2023/05/29 03:25:10;;;;;;;3.22;1.75;;;;;;;8.94;100.00;101916.97;5037831;28;20041;-48
2023/05/29 03:27:36;;;;;;;6.70;1.35;;;;;;;8.88;100.00;101921.03;5039652;28;20525;-51
2023/05/29 03:30:02;;;;;;;4.97;0.82;;;;;;;8.88;100.00;101926.31;5041188;28;20122;-51
2023/05/29 03:32:28;;;;;;;5.38;0.80;;;;;;;8.87;100.00;101921.16;5036913;28;20040;-50
2023/05/29 03:34:53;;;;;;;8.63;1.02;;;;;;;8.82;100.00;101933.97;5037086;28;20414;-49
2023/05/29 03:37:19;;;;;;;3.25;0.30;;;;;;;8.74;100.00;101932.06;5037485;28;20064;-48
2023/05/29 03:39:44;;;;;;;6.03;0.40;;;;;;;8.67;100.00;101941.53;5039130;28;20119;-49
2023/05/29 03:42:09;;;;;;;1.90;0.50;;;;;;;8.76;100.00;101940.69;5039597;28;20078;-49
2023/05/29 03:44:35;;;;;;;1.75;0.40;;;;;;;8.86;100.00;101932.72;5029849;28;20033;-49
2023/05/29 03:47:00;;;;;;;4.30;0.60;;;;;;;8.84;100.00;101932.84;5041941;28;20055;-50
2023/05/29 03:49:25;;;;;;;6.03;0.70;;;;;;;8.78;100.00;101932.59;5034672;28;20045;-54
2023/05/29 03:51:51;;;;;;;3.28;1.15;;;;;;;8.74;100.00;101940.81;5038470;28;20473;-48
2023/05/29 03:54:16;;;;;;;1.90;0.70;;;;;;;8.64;100.00;101944.47;5030225;28;20433;-51
2023/05/29 03:56:42;;;;;;;6.13;0.65;;;;;;;8.68;100.00;101944.03;5038842;28;20044;-51
2023/05/29 03:59:08;;;;;;;3.95;1.27;;;;;;;8.76;100.00;101939.84;5037718;28;20025;-51
2023/05/29 04:01:33;;;;;;;2.58;0.73;;;;;;;8.78;100.00;101941.38;5032231;28;20066;-48
2023/05/29 04:03:58;;;;;;;11.95;1.27;;;;;;;8.78;100.00;101940.53;5040115;28;20032;-51
2023/05/29 04:06:24;;;;;;;5.43;1.45;;;;;;;8.76;100.00;101947.78;5031762;28;20036;-48
2023/05/29 04:08:49;;;;;;;2.90;1.02;;;;;;;8.71;100.00;101938.47;5035819;28;20044;-50
2023/05/29 04:11:15;;;;;;;3.65;1.33;;;;;;;8.70;100.00;101941.25;5037388;28;20040;-50
2023/05/29 04:13:40;;;;;;;3.60;0.50;;;;;;;8.67;100.00;101942.38;5036486;28;20112;-50
2023/05/29 04:16:06;;;;;;;9.43;0.70;;;;;;;8.69;100.00;101945.69;5040580;28;20044;-49
2023/05/29 04:18:32;;;;;;;8.00;0.95;;;;;;;8.74;100.00;101954.03;5031381;28;20467;-50
2023/05/29 04:20:57;;;;;;;4.30;0.20;;;;;;;8.78;100.00;101959.03;5023247;28;20048;-52
2023/05/29 04:23:23;;;;;;;6.85;1.13;;;;;;;8.90;100.00;101964.00;5036187;28;20029;-53
2023/05/29 04:25:50;;;;;;;4.65;0.98;;;;;;;8.85;100.00;101963.59;5034975;28;20041;-51
2023/05/29 04:28:16;;;;;;;11.85;1.55;;;;;;;8.80;100.00;101957.91;5027125;28;20439;-48
2023/05/29 04:30:42;;;;;;;3.17;0.73;;;;;;;8.78;100.00;101962.53;5033303;28;20025;-51
2023/05/29 04:33:09;;;;;;;6.53;1.17;;;;;;;8.83;100.00;101955.00;5036374;28;20040;-52
2023/05/29 04:35:35;;;;;;;5.22;1.27;;;;;;;8.82;100.00;101953.31;5036894;28;20055;-53
2023/05/29 04:38:00;;;;;;;8.13;1.20;;;;;;;8.84;100.00;101961.94;5044281;28;20391;-49
2023/05/29 04:40:26;;;;;;;4.00;1.25;;;;;;;8.90;100.00;101960.53;5037775;28;20122;-48
2023/05/29 04:42:52;;;;;;;6.00;1.38;;;;;;;9.03;100.00;101960.22;5040734;28;20028;-53
2023/05/29 04:45:20;;;;;;;5.05;1.23;;;;;;;9.04;100.00;101953.97;5036077;28;20029;-53
2023/05/29 04:47:46;;;;;;;6.15;1.13;;;;;;;9.10;100.00;101956.84;5035263;28;20025;-53
2023/05/29 04:50:16;;;;;;;2.78;0.35;;;;;;;9.15;100.00;101954.59;5040159;28;20045;-55
2023/05/29 04:52:41;;;;;;;1.88;0.68;;;;;;;9.19;100.00;101957.81;5034696;28;20067;-49
2023/05/29 04:55:07;;;;;;;2.33;0.35;;;;;;;9.18;100.00;101956.13;5035326;28;20503;-49
2023/05/29 04:57:32;;;;;;;0.98;0.85;;;;;;;9.19;100.00;101957.81;5044620;28;20037;-51
2023/05/29 04:59:58;;;;;;;1.35;0.10;;;;;;;9.24;100.00;101960.84;5038559;28;20033;-48
2023/05/29 05:02:24;;;;;;;8.95;1.10;;;;;;;9.29;100.00;101969.19;5039469;28;20194;-50
2023/05/29 05:04:50;;;;;;;8.20;1.90;;;;;;;9.35;100.00;101968.59;5045438;28;20611;-51
2023/05/29 05:07:15;;;;;;;5.10;0.43;;;;;;;9.43;100.00;101964.38;5040701;28;20500;-49
2023/05/29 05:09:41;;;;;;;9.82;1.65;;;;;;;9.50;100.00;101965.44;5046601;28;20144;-48
2023/05/29 05:12:07;;;;;;;6.57;1.15;;;;;;;9.62;100.00;101951.03;5042537;28;20406;-48
2023/05/29 05:14:32;;;;;;;2.47;0.75;;;;;;;9.67;100.00;101956.72;5041411;28;20036;-51
2023/05/29 05:16:58;;;;;;;5.75;0.80;;;;;;;9.76;100.00;101955.00;5038243;28;20884;-49
2023/05/29 05:19:23;;;;;;;4.07;1.30;;;;;;;9.94;100.00;101952.34;5041486;28;20029;-48
2023/05/29 05:21:48;;;;;;;6.80;1.85;;;;;;;10.11;100.00;101963.94;5020489;28;20096;-50
2023/05/29 05:24:14;;;;;;;8.75;1.27;;;;;;;10.24;100.00;101959.06;5041278;28;20557;-49
2023/05/29 05:26:39;;;;;;;8.23;1.85;;;;;;;10.32;100.00;101953.03;5043058;28;20029;-52
2023/05/29 05:29:04;;;;;;;3.72;1.20;;;;;;;10.37;100.00;101958.72;5038030;28;20030;-49
2023/05/29 05:31:30;;;;;;;1.77;0.38;;;;;;;10.39;100.00;101959.41;5039463;28;20037;-49
2023/05/29 05:33:55;;;;;;;6.38;1.90;;;;;;;10.44;100.00;101967.72;5038536;28;20474;-50
2023/05/29 05:36:21;;;;;;;3.25;0.55;;;;;;;10.49;100.00;101960.16;5040331;28;20148;-50
2023/05/29 05:38:46;;;;;;;3.88;0.90;;;;;;;10.57;100.00;101965.50;5043904;28;20037;-49
2023/05/29 05:41:11;;;;;;;10.63;1.63;;;;;;;10.63;100.00;101967.53;5035142;28;20041;-50
2023/05/29 05:43:37;;;;;;;7.00;1.10;;;;;;;10.66;100.00;101967.25;5019646;28;20056;-50
2023/05/29 05:46:02;;;;;;;3.10;0.82;;;;;;;10.62;100.00;101968.53;5036313;28;20035;-51
2023/05/29 05:48:27;;;;;;;1.80;0.38;;;;;;;10.75;100.00;101975.25;5040858;28;20036;-51
2023/05/29 05:50:52;;;;;;;6.53;0.88;;;;;;;10.77;100.00;101968.81;5035111;28;20047;-50
2023/05/29 05:53:18;;;;;;;7.07;1.48;;;;;;;10.88;100.00;101965.06;5039847;28;20045;-51
2023/05/29 05:55:43;;;;;;;10.05;0.77;;;;;;;10.95;100.00;101965.28;5039332;28;20616;-49
2023/05/29 05:58:09;;;;;;;5.63;1.63;;;;;;;11.10;100.00;101966.31;5039268;28;20024;-48
2023/05/29 06:00:34;;;;;;;6.30;1.05;;;;;;;11.19;100.00;101972.53;5034640;28;20517;-51
2023/05/29 06:03:02;;;;;;;8.70;0.68;;;;;;;11.21;100.00;101975.84;5041075;28;20127;-50
2023/05/29 06:05:28;;;;;;;3.72;0.50;;;;;;;11.42;100.00;101978.09;5037422;28;20512;-49
2023/05/29 06:07:54;;;;;;;2.90;0.68;;;;;;;11.48;100.00;101983.59;5041349;28;20036;-52
2023/05/29 06:10:19;;;;;;;2.08;0.73;;;;;;;11.64;100.00;101987.28;5038696;28;20060;-51
2023/05/29 06:12:44;;;;;;;2.83;0.43;;;;;;;11.73;100.00;101984.50;5041634;28;20060;-51
2023/05/29 06:15:10;;;;;;;4.75;0.80;;;;;;;11.78;100.00;101979.53;5033623;28;20859;-52
2023/05/29 06:17:35;;;;;;;6.07;1.75;;;;;;;11.92;100.00;101971.97;5040016;28;20032;-48
2023/05/29 06:20:01;;;;;;;4.75;1.38;;;;;;;12.06;100.00;101981.13;5039967;28;20029;-50
2023/05/29 06:22:26;;;;;;;7.68;0.30;;;;;;;12.12;100.00;101983.13;5033779;28;20025;-54
2023/05/29 06:24:51;;;;;;;6.93;0.60;;;;;;;12.10;100.00;101980.63;5037797;28;20148;-52
2023/05/29 06:27:17;;;;;;;4.25;0.55;;;;;;;12.27;100.00;101992.13;5039605;28;20040;-48
2023/05/29 06:29:43;;;;;;;7.78;0.82;;;;;;;12.31;100.00;101988.13;5041780;28;20381;-52
2023/05/29 06:32:08;;;;;;;2.47;0.35;;;;;;;12.44;100.00;101985.81;5038346;28;20033;-49
2023/05/29 06:34:34;;;;;;;8.82;0.93;;;;;;;12.40;100.00;101994.28;5036981;28;20486;-56
2023/05/29 06:36:59;;;;;;;5.38;0.65;;;;;;;12.22;100.00;101989.13;5038875;28;20033;-54
2023/05/29 06:39:24;;;;;;;3.13;0.25;;;;;;;12.05;100.00;101987.44;5038476;28;20029;-50
2023/05/29 06:41:50;;;;;;;3.33;0.63;;;;;;;11.95;100.00;101999.06;5035586;28;20033;-50
2023/05/29 06:44:15;;;;;;;9.35;2.15;;;;;;;11.99;100.00;102005.69;5041086;28;20056;-56
2023/05/29 06:46:40;;;;;;;7.55;1.17;;;;;;;11.92;100.00;101999.38;5036554;28;20059;-59
2023/05/29 06:49:06;;;;;;;3.63;0.55;;;;;;;12.03;100.00;102016.00;5038198;28;20029;-52
2023/05/29 06:51:32;;;;;;;1.95;0.22;;;;;;;11.99;100.00;102016.34;5036754;28;20042;-52
2023/05/29 06:53:58;;;;;;;7.60;0.45;;;;;;;11.96;100.00;102006.03;5023259;28;20428;-48
2023/05/29 06:56:23;;;;;;;4.80;0.43;;;;;;;12.16;100.00;102005.75;5040241;28;20037;-53
2023/05/29 06:58:48;;;;;;;3.55;0.88;;;;;;;12.33;100.00;102018.03;5045163;28;20021;-50
2023/05/29 07:01:16;;;;;;;5.88;0.50;;;;;;;12.31;100.00;102012.06;5035232;28;20110;-56
2023/05/29 07:03:42;;;;;;;3.88;0.50;;;;;;;12.28;100.00;102004.41;5036557;28;20037;-56
2023/05/29 07:06:07;;;;;;;2.25;0.30;;;;;;;12.42;100.00;102006.41;5029834;28;20493;-53
2023/05/29 07:08:33;;;;;;;2.08;0.30;;;;;;;12.66;100.00;101999.44;5035838;28;20033;-51
2023/05/29 07:10:58;;;;;;;3.88;0.93;;;;;;;12.90;100.00;101998.56;5034826;28;20033;-52
2023/05/29 07:13:24;;;;;;;1.23;0.30;;;;;;;12.93;100.00;101992.06;5041265;28;20112;-51
2023/05/29 07:15:50;;;;;;;4.50;0.77;;;;;;;12.74;100.00;102002.06;5039663;28;20033;-52
2023/05/29 07:18:15;;;;;;;1.85;0.38;;;;;;;12.71;100.00;101997.09;5035275;28;20082;-60
2023/05/29 07:20:41;;;;;;;2.28;0.28;;;;;;;12.68;100.00;102002.75;5020744;28;20033;-57
2023/05/29 07:23:06;;;;;;;2.28;1.20;;;;;;;12.78;100.00;101992.78;5036332;28;20398;-58
2023/05/29 07:25:32;;;;;;;2.28;0.32;;;;;;;12.81;100.00;101996.94;5032297;28;20133;-62
2023/05/29 07:27:58;;;;;;;4.68;0.32;;;;;;;12.93;100.00;101997.38;5038963;28;20033;-61
2023/05/29 07:30:23;;;;;;;3.10;0.15;;;;;;;13.17;100.00;102000.00;5034652;28;20048;-58
2023/05/29 07:32:49;;;;;;;1.98;0.25;;;;;;;13.50;100.00;101995.41;5017113;28;20033;-59
2023/05/29 07:35:14;;;;;;;5.57;0.95;;;;;;;13.87;100.00;102006.41;5032510;28;20553;-60
2023/05/29 07:37:40;;;;;;;7.25;1.23;;;;;;;14.23;100.00;101996.00;5037928;28;20052;-59
2023/05/29 07:40:05;;;;;;;0.95;0.10;;;;;;;14.56;100.00;101995.72;5033426;28;20098;-57
2023/05/29 07:42:34;;;;;;;1.55;0.43;;;;;;;14.82;100.00;101993.50;5035907;28;20025;-55
2023/05/29 07:44:59;;;;;;;4.45;0.77;;;;;;;14.87;100.00;101997.44;5035915;28;20390;-53
2023/05/29 07:47:25;;;;;;;10.63;0.50;;;;;;;14.94;100.00;101998.38;5034957;28;20037;-59
2023/05/29 07:49:51;;;;;;;4.10;0.77;;;;;;;14.81;100.00;102013.19;5035341;28;20067;-58
2023/05/29 07:52:17;;;;;;;4.90;0.63;;;;;;;14.97;100.00;102006.88;5030638;28;20033;-57
2023/05/29 07:54:42;;;;;;;2.20;0.10;;;;;;;14.72;100.00;102002.78;5040088;28;20407;-52
2023/05/29 07:57:09;;;;;;;5.20;0.77;;;;;;;14.50;100.00;102015.94;5029402;28;20037;-54
2023/05/29 07:59:37;;;;;;;7.55;0.90;;;;;;;14.44;100.00;102013.19;5030463;28;20034;-54
2023/05/29 08:02:03;;;;;;;1.75;0.20;;;;;;;14.19;100.00;102010.69;5034674;28;20482;-59
2023/05/29 08:04:29;;;;;;;4.10;1.10;;;;;;;14.15;100.00;102018.22;5033043;28;20033;-58
2023/05/29 08:06:55;;;;;;;6.68;0.52;;;;;;;14.36;100.00;102008.72;5031029;28;20492;-57
2023/05/29 08:09:20;;;;;;;2.00;0.38;;;;;;;14.53;100.00;102009.44;5035361;28;20044;-58
2023/05/29 08:11:46;;;;;;;4.40;0.47;;;;;;;14.73;100.00;101997.25;5028034;28;20037;-56
2023/05/29 08:14:12;;;;;;;4.13;1.02;;;;;;;15.24;100.00;102000.06;5035679;28;20040;-57
2023/05/29 08:16:37;;;;;;;3.78;0.30;;;;;;;15.52;100.00;102003.91;5032736;28;20154;-58
2023/05/29 08:19:03;;;;;;;8.45;0.50;;;;;;;15.45;100.00;102012.66;5037481;28;20159;-57
2023/05/29 08:21:32;;;;;;;0.65;0.30;;;;;;;15.25;100.00;102022.25;5037736;28;20028;-60
2023/05/29 08:23:58;;;;;;;1.98;0.82;;;;;;;15.18;100.00;102008.81;5033625;28;20037;-56
2023/05/29 08:26:23;;;;;;;3.00;0.70;;;;;;;15.13;100.00;102021.06;5028467;28;20055;-54
2023/05/29 08:28:49;;;;;;;6.65;0.60;;;;;;;15.00;100.00;102017.19;5030285;28;20454;-60
2023/05/29 08:31:14;;;;;;;4.18;0.15;;;;;;;15.20;100.00;102016.63;5041656;28;20115;-56
2023/05/29 08:33:39;;;;;;;5.00;0.32;;;;;;;15.57;100.00;101999.66;5040843;28;20037;-58
2023/05/29 08:36:05;;;;;;;2.35;0.30;;;;;;;15.59;100.00;102012.81;5037177;28;20516;-57
2023/05/29 08:38:30;;;;;;;2.42;0.20;;;;;;;15.41;100.00;102022.09;5033520;28;20116;-59
2023/05/29 08:40:58;;;;;;;6.82;0.30;;;;;;;15.51;100.00;102021.78;5037725;28;20215;-58
2023/05/29 08:43:25;;;;;;;5.80;1.67;;;;;;;15.68;100.00;102001.03;5040662;28;20411;-57
2023/05/29 08:45:56;;;;;;;6.93;0.63;;;;;;;16.07;100.00;102019.38;5038622;28;20421;-58
2023/05/29 08:48:26;;;;;;;2.20;0.32;;;;;;;16.53;100.00;102013.66;5033872;28;20051;-52
2023/05/29 08:50:54;;;;;;;2.53;0.27;;;;;;;16.55;100.00;102013.47;5037929;28;20060;-57
2023/05/29 08:53:21;;;;;;;1.45;0.30;;;;;;;16.49;100.00;102015.03;5038332;28;20052;-50
2023/05/29 08:55:48;;;;;;;2.05;0.40;;;;;;;16.34;100.00;102023.16;5034821;28;20036;-55
2023/05/29 08:58:14;;;;;;;1.58;0.38;;;;;;;16.09;100.00;102029.91;5033467;28;20051;-56
2023/05/29 09:00:40;;;;;;;1.73;0.20;;;;;;;16.11;100.00;102022.53;5038225;28;20034;-60
2023/05/29 09:03:06;;;;;;;2.83;0.45;;;;;;;16.21;100.00;102011.47;5033211;28;20029;-54
2023/05/29 09:05:32;;;;;;;4.60;1.25;;;;;;;16.54;100.00;102014.47;5039132;28;20025;-51
2023/05/29 09:07:58;;;;;;;7.63;0.50;;;;;;;16.60;100.00;102010.19;5039117;28;20112;-55
2023/05/29 09:10:26;;;;;;;2.92;0.55;;;;;;;16.64;100.00;102017.63;5042836;28;20032;-56
2023/05/29 09:12:51;;;;;;;2.80;0.30;;;;;;;16.57;100.00;102014.94;5040776;28;20616;-53
2023/05/29 09:15:21;;;;;;;0.95;0.25;;;;;;;16.87;100.00;102005.91;5032389;28;20128;-55
2023/05/29 09:17:54;;;;;;;3.70;0.30;;;;;;;16.87;100.00;102009.41;5039138;28;20123;-50
2023/05/29 09:20:24;;;;;;;1.73;0.20;;;;;;;16.88;100.00;102010.22;5039979;28;20102;-57
2023/05/29 09:23:03;;;;;;;3.15;0.20;;;;;;;16.48;100.00;102018.75;5035479;28;20056;-60
2023/05/29 09:25:32;;;;;;;2.28;0.50;;;;;;;16.90;100.00;102017.03;5040940;28;20040;-57
2023/05/29 09:27:57;;;;;;;4.47;1.25;;;;;;;17.24;100.00;102020.75;5039983;28;20041;-62
2023/05/29 09:30:43;;;;;;;4.68;0.93;;;;;;;17.35;100.00;102024.75;5041801;28;20033;-52
2023/05/29 09:33:10;;;;;;;2.08;0.57;;;;;;;16.98;100.00;102029.47;5033723;28;20036;-59
2023/05/29 09:35:43;;;;;;;6.80;0.60;;;;;;;16.94;99.58;102036.25;5042742;28;20486;-61
2023/05/29 09:38:12;;;;;;;3.13;0.70;;;;;;;17.21;97.91;102027.34;5036663;28;20033;-57
2023/05/29 09:40:39;;;;;;;11.20;0.52;;;;;;;17.60;97.04;102028.56;5040617;28;20029;-52
2023/05/29 09:43:12;;;;;;;2.97;0.68;;;;;;;17.88;94.03;102047.25;5045487;28;20021;-61
2023/05/29 09:45:39;;;;;;;3.72;0.80;;;;;;;18.06;92.70;102038.66;5038861;28;20037;-57
2023/05/29 09:48:07;;;;;;;3.72;0.40;;;;;;;17.48;93.42;102040.06;5028517;28;20092;-54
2023/05/29 09:50:34;;;;;;;2.20;0.95;;;;;;;17.16;96.29;102032.47;5029122;28;20036;-53
2023/05/29 09:53:01;;;;;;;3.72;0.38;;;;;;;16.80;95.86;102035.31;5033997;28;20021;-56
2023/05/29 09:55:28;;;;;;;4.18;0.77;;;;;;;16.76;97.39;102037.53;5033951;28;20536;-54
2023/05/29 09:57:54;;;;;;;6.47;1.30;;;;;;;16.90;98.45;102032.28;5032338;28;20090;-55
2023/05/29 10:00:21;;;;;;;2.72;0.68;;;;;;;16.95;97.08;102027.19;5032107;28;20447;-59
2023/05/29 10:02:48;;;;;;;1.58;0.10;;;;;;;17.12;96.06;102031.22;5033747;28;20029;-58
2023/05/29 10:05:15;;;;;;;1.50;0.47;;;;;;;17.26;96.79;102040.16;5034747;28;20075;-55
2023/05/29 10:07:47;;;;;;;2.15;0.32;;;;;;;17.21;96.75;102034.56;5040878;28;20033;-51
2023/05/29 10:10:14;;;;;;;2.20;0.45;;;;;;;17.52;95.76;102033.28;5032642;28;20106;-54
2023/05/29 10:12:44;;;;;;;2.35;0.63;;;;;;;17.73;93.73;102033.16;5030324;28;20604;-53
2023/05/29 10:15:14;;;;;;;4.60;0.73;;;;;;;17.68;92.08;102030.25;5021921;28;20481;-56
2023/05/29 10:18:12;;;;;;;2.03;0.25;;;;;;;17.79;92.08;102047.63;5032661;28;20030;-57
2023/05/29 10:20:38;;;;;;;5.18;0.50;;;;;;;18.08;92.69;102041.16;5016793;28;20414;-54
2023/05/29 10:23:04;;;;;;;5.75;1.27;;;;;;;18.13;92.33;102041.38;5035445;28;20035;-53
2023/05/29 10:25:33;;;;;;;5.13;0.40;;;;;;;18.13;92.54;102036.00;5035939;28;20029;-57
2023/05/29 10:27:59;;;;;;;3.83;0.57;;;;;;;18.39;91.48;102032.53;5035909;28;20029;-55
2023/05/29 10:30:40;;;;;;;4.85;0.40;;;;;;;18.21;90.91;102035.78;5037144;28;20029;-53
2023/05/29 10:33:18;;;;;;;3.53;0.45;;;;;;;18.08;90.83;102041.16;5040609;28;20032;-57
2023/05/29 10:35:48;;;;;;;5.85;1.02;;;;;;;18.34;93.53;102024.25;5035756;28;20034;-58
2023/05/29 10:38:16;;;;;;;2.58;0.55;;;;;;;18.44;95.18;102032.72;5033876;28;20037;-55
2023/05/29 10:40:43;;;;;;;3.00;0.95;;;;;;;18.64;91.61;102019.31;5037018;28;20041;-55
2023/05/29 10:43:10;;;;;;;1.63;0.50;;;;;;;18.08;90.71;102025.03;5038572;28;20071;-55
2023/05/29 10:45:48;;;;;;;1.95;0.65;;;;;;;18.09;91.64;102029.38;5033962;28;20390;-58
2023/05/29 10:48:13;;;;;;;1.88;0.50;;;;;;;18.09;91.37;102019.44;5032555;28;20074;-58
2023/05/29 10:50:46;;;;;;;1.02;0.40;;;;;;;18.58;91.21;102019.31;5030648;28;20053;-57
2023/05/29 10:53:17;;;;;;;5.30;0.73;;;;;;;18.46;89.80;102013.75;5027843;28;20043;-57
2023/05/29 10:55:44;;;;;;;1.93;0.57;;;;;;;19.14;90.17;102018.84;5035355;28;20033;-55
2023/05/29 10:58:18;;;;;;;4.82;0.25;;;;;;;19.59;87.47;102013.53;5035790;28;20493;-58
2023/05/29 11:00:46;;;;;;;5.93;0.57;;;;;;;19.53;87.54;102014.38;5035253;28;20040;-54
2023/05/29 11:03:23;;;;;;;1.50;0.70;;;;;;;19.45;89.64;102020.00;5026914;28;20025;-56
2023/05/29 11:06:10;;;;;;;3.83;0.25;;;;;;;18.93;87.43;102023.44;5042149;28;20037;-56
2023/05/29 11:08:45;;;;;;;4.95;0.40;;;;;;;18.78;88.66;102024.72;5041996;28;20094;-61
2023/05/29 11:11:14;;;;;;;2.85;0.52;;;;;;;18.78;88.83;102022.84;5038279;28;20486;-61
2023/05/29 11:13:44;;;;;;;4.20;0.52;;;;;;;19.08;89.36;102023.22;5039022;28;20042;-54
2023/05/29 11:16:35;;;;;;;1.83;0.60;;;;;;;19.38;89.89;102004.69;5032912;28;20037;-62
2023/05/29 11:19:04;;;;;;;5.55;1.38;;;;;;;19.39;85.45;102006.38;5031297;28;20083;-59